Weather at Mont-Tremblant / Lac Ouimet Water Aerodrome [CLOSED]

Public forecast

Using degrees Celsius for public forecast. Weather courtesy of forecast.io.

Closest aviation weather report (METAR) to Mont-Tremblant / Lac Ouimet Water Aerodrome

Closest report is Montreal International (Mirabel) Airport, 36.9 nm (68.3 km) SE.

2024/05/22 20:00 (retrieved 47 minutes ago)

CYMX 222000Z 15004KT 090V220 20SM FEW065 BKN250 29/21 A2972 RMK CU1CI5 CU TR SLP068 DENSITY ALT 2200FT

Closest aviation forecast (TAF) to Mont-Tremblant / Lac Ouimet Water Aerodrome

Closest forecast is Montreal International (Mirabel) Airport, 36.9 nm (68.3 km) SE.

2024/05/22 18:42 (retrieved 2 hours ago)

TAF TAF CYMX 221740Z 2218/2318 22005KT P6SM SCT240 FM221900 23008KT P6SM SCT060 FM222100 23010KT P6SM BKN060 TEMPO 2221/2224 P6SM -SHRA PROB30 2222/2224 VRB15G30KT 2SM TSRA BR BKN030 OVC060CB FM230000 23006KT P6SM SCT080 FM230200 24005KT P6SM -SHRA BKN080 PROB30 2302/2305 VRB20G30KT 2SM TSRA BKN030 OVC080CB FM230700 25005KT P6SM SCT060 SCT120 BECMG 2310/2312 23010G20KT FM231300 24010G20KT P6SM SKC RMK NXT FCST BY 230000Z